»·PEaware :: N324PT KCMA-KSNA

N324PT :: KCMA-KSNA

FLIGHT INFORMATION

Flight Status: Arrived
Operator: Privately registered:
United States
More flights under this callsign
Pilot: Pedro T. (27113)
Aircraft: CESSNA 172 SKYHAWK
(C172)
More flights by this aircraft type
Origin: KCMA Camarillo
United States
Destination: KSNA John Wayne-Orange Co
United States
More flights between these airports :: More routes between these airports
Route: +
File this flight plan on PilotEdge
Remarks: CAT10
Altitude:
(Current/Filed)
0ft
Speed:
(Current/Filed)
0kts
Departed: 02-Dec-19 01:50 PM
Arrived: 02-Dec-19 02:37 PM
Distance/Time
Traveled:
69nm/0:47
Distance/Time
To Go:
Arrived

Flight Plot

Page will automatically refresh every two minutes.


Map Options




Map Legend


Flown Route
Filed Route
Departure Airport
Arrival Airport
Navaid (VOR, NDB)
Fix

Horizontal Profiles

Position Reports

Time Latitude Longitude Heading Altitude Ground
Speed
02-Dec-19 13:31 34.210350 -119.076468 90 79ft 0kts
02-Dec-19 13:32 34.210350 -119.076468 90 79ft 0kts
02-Dec-19 13:33 34.210350 -119.076468 90 79ft 0kts
02-Dec-19 13:34 34.210350 -119.076468 90 79ft 0kts
02-Dec-19 13:35 34.210350 -119.076468 90 79ft 0kts
02-Dec-19 13:36 34.210350 -119.076468 90 79ft 0kts
02-Dec-19 13:37 34.210397 -119.076295 52 79ft 3kts
02-Dec-19 13:38 34.210592 -119.076077 25 79ft 0kts
02-Dec-19 13:39 34.210592 -119.076077 25 79ft 0kts
02-Dec-19 13:40 34.210873 -119.077747 282 79ft 10kts
02-Dec-19 13:41 34.211251 -119.080179 275 78ft 0kts
02-Dec-19 13:42 34.211251 -119.080179 275 78ft 0kts
02-Dec-19 13:43 34.211264 -119.081551 267 76ft 12kts
02-Dec-19 13:45 34.212085 -119.084031 346 75ft 8kts
02-Dec-19 13:46 34.212848 -119.084621 2 76ft 0kts
02-Dec-19 13:47 34.212848 -119.084621 2 76ft 0kts
02-Dec-19 13:48 34.212848 -119.084621 2 76ft 0kts
02-Dec-19 13:49 34.213023 -119.084613 0 76ft 4kts
02-Dec-19 13:50 34.214060 -119.096586 270 230ft 82kts
02-Dec-19 13:51 34.226094 -119.116201 357 1017ft 96kts
02-Dec-19 13:52 34.232868 -119.089399 99 1759ft 107kts
02-Dec-19 13:53 34.218314 -119.061400 121 2641ft 102kts
02-Dec-19 13:54 34.210785 -119.025117 108 3194ft 121kts
02-Dec-19 13:55 34.202612 -118.985006 108 3689ft 124kts
02-Dec-19 13:56 34.194593 -118.944876 108 4179ft 123kts
02-Dec-19 13:57 34.186847 -118.905285 108 4666ft 122kts
02-Dec-19 13:58 34.179277 -118.865822 108 5154ft 121kts
02-Dec-19 13:59 34.171823 -118.826455 108 5541ft 127kts
02-Dec-19 14:00 34.166639 -118.785389 94 5555ft 128kts
02-Dec-19 14:01 34.166209 -118.744437 95 5553ft 127kts
02-Dec-19 14:02 34.165349 -118.703854 95 5529ft 130kts
02-Dec-19 14:03 34.158981 -118.662393 133 5523ft 127kts
02-Dec-19 14:04 34.142090 -118.625256 96 5525ft 132kts
02-Dec-19 14:04 34.139130 -118.591793 96 5518ft 101kts
02-Dec-19 14:05 34.136216 -118.561842 96 5540ft 109kts
02-Dec-19 14:07 34.122070 -118.520624 152 5526ft 120kts
02-Dec-19 14:08 34.093475 -118.499308 149 5527ft 123kts
02-Dec-19 14:08 34.069658 -118.482334 166 5527ft 120kts
02-Dec-19 14:10 34.031868 -118.476964 180 5526ft 118kts
02-Dec-19 14:11 34.000348 -118.466636 161 5526ft 121kts
02-Dec-19 14:11 33.975588 -118.453098 157 5525ft 119kts
02-Dec-19 14:13 33.942025 -118.435686 160 5525ft 117kts
02-Dec-19 14:14 33.914642 -118.413084 136 5529ft 129kts
02-Dec-19 14:14 33.893539 -118.388476 141 5529ft 136kts
02-Dec-19 14:15 33.866156 -118.359123 141 5528ft 127kts
02-Dec-19 14:16 33.841954 -118.332393 142 5528ft 120kts
02-Dec-19 14:17 33.817750 -118.305296 142 5528ft 119kts
02-Dec-19 14:18 33.793697 -118.278301 142 5526ft 118kts
02-Dec-19 14:19 33.769851 -118.251516 142 5524ft 117kts
02-Dec-19 14:20 33.747948 -118.226711 142 5102ft 102kts
02-Dec-19 14:21 33.725604 -118.208964 165 4602ft 95kts
02-Dec-19 14:22 33.705848 -118.187650 138 4110ft 98kts
02-Dec-19 14:23 33.688182 -118.165145 138 3641ft 98kts
02-Dec-19 14:24 33.672115 -118.141677 111 3514ft 93kts
02-Dec-19 14:25 33.664490 -118.107176 109 3473ft 117kts
02-Dec-19 14:26 33.656082 -118.070373 109 3289ft 121kts
02-Dec-19 14:27 33.647167 -118.031943 109 3025ft 125kts
02-Dec-19 14:28 33.639585 -117.992839 79 2733ft 131kts
02-Dec-19 14:29 33.653599 -117.956896 74 2449ft 128kts
02-Dec-19 14:30 33.665393 -117.922191 68 1966ft 103kts
02-Dec-19 14:31 33.674265 -117.895638 65 1267ft 95kts
02-Dec-19 14:32 33.690200 -117.875208 39 1033ft 96kts
02-Dec-19 14:33 33.708125 -117.858425 77 882ft 70kts
02-Dec-19 14:34 33.697520 -117.854717 204 680ft 57kts
02-Dec-19 14:35 33.682926 -117.862389 208 157ft 57kts
02-Dec-19 14:36 33.676860 -117.865563 120 60ft 0kts
02-Dec-19 14:37 33.676860 -117.865563 120 60ft 0kts
02-Dec-19 14:38 33.674779 -117.866661 207 60ft 13kts
02-Dec-19 14:39 33.672365 -117.867195 194 60ft 4kts
02-Dec-19 14:40 33.671911 -117.867338 205 60ft 0kts
02-Dec-19 14:41 33.671911 -117.867338 205 60ft 0kts
02-Dec-19 14:42 33.671911 -117.867338 205 60ft 0kts
02-Dec-19 14:43 33.671911 -117.867338 205 60ft 0kts
02-Dec-19 14:44 33.671911 -117.867338 205 60ft 0kts
02-Dec-19 14:45 33.671911 -117.867338 205 60ft 0kts
02-Dec-19 14:46 33.671911 -117.867338 205 60ft 0kts
02-Dec-19 14:47 33.671911 -117.867338 205 60ft 0kts
02-Dec-19 14:48 33.671911 -117.867338 205 60ft 0kts
02-Dec-19 14:49 33.671911 -117.867338 205 60ft 0kts
02-Dec-19 14:50 33.671911 -117.867338 205 60ft 0kts

Navigation Log

Ident Type
Flight plan parsing failed, navigation log unavailable